Time;durP1;ratioP1;P1;durP2;ratioP2;P2;SDS_P1;SDS_P2;PMS_P1;PMS_P2;Temp;Humidity;BMP_temperature;BMP_pressure;BME280_temperature;BME280_humidity;BME280_pressure;Samples;Min_cycle;Max_cycle;Signal;HPM_P1;HPM_P2
2021/01/22 00:00:12;;;;;;;31.90;16.48;;;;;;;;;;5033420;28;20373;-70
2021/01/22 00:02:38;;;;;;;35.50;16.83;;;;;;;;;;5033870;28;20021;-71
2021/01/22 00:05:05;;;;;;;29.98;16.92;;;;;;;;;;5033943;28;20030;-70
2021/01/22 00:07:31;;;;;;;29.23;15.02;;;;;;;;;;5033356;28;20028;-70
2021/01/22 00:09:57;;;;;;;28.73;15.32;;;;;;;;;;5033850;28;20462;-70
2021/01/22 00:12:23;;;;;;;33.55;16.08;;;;;;;;;;5033597;28;20533;-69
2021/01/22 00:14:49;;;;;;;30.10;15.77;;;;;;;;;;5033299;28;20056;-68
2021/01/22 00:17:15;;;;;;;27.63;14.85;;;;;;;;;;5034012;28;20037;-70
2021/01/22 00:19:42;;;;;;;28.95;15.13;;;;;;;;;;5033667;28;20037;-69
2021/01/22 00:22:09;;;;;;;30.05;14.30;;;;;;;;;;5033754;28;20024;-70
2021/01/22 00:24:35;;;;;;;25.63;13.80;;;;;;;;;;5033630;28;20488;-70
2021/01/22 00:27:01;;;;;;;29.60;15.43;;;;;;;;;;5033558;28;20034;-69
2021/01/22 00:29:27;;;;;;;30.92;15.23;;;;;;;;;;5033797;28;20025;-69
2021/01/22 00:31:53;;;;;;;28.45;15.25;;;;;;;;;;5033218;28;20129;-69
2021/01/22 00:34:19;;;;;;;30.95;15.02;;;;;;;;;;5033243;28;20025;-69
2021/01/22 00:36:45;;;;;;;25.58;13.98;;;;;;;;;;5033550;28;20207;-70
2021/01/22 00:39:11;;;;;;;25.33;12.40;;;;;;;;;;5033321;28;20033;-71
2021/01/22 00:41:37;;;;;;;19.30;10.40;;;;;;;;;;5033053;28;20452;-68
2021/01/22 00:44:03;;;;;;;17.60;9.32;;;;;;;;;;5033279;28;20022;-69
2021/01/22 00:46:29;;;;;;;17.73;8.65;;;;;;;;;;5033176;28;20036;-70
2021/01/22 00:48:55;;;;;;;17.70;8.95;;;;;;;;;;5033120;28;20140;-69
2021/01/22 00:51:21;;;;;;;16.63;9.15;;;;;;;;;;5033656;28;20036;-70
2021/01/22 00:53:48;;;;;;;17.13;9.15;;;;;;;;;;5036662;28;20500;-68
2021/01/22 00:56:14;;;;;;;17.02;9.18;;;;;;;;;;5036657;28;20037;-68
2021/01/22 00:58:40;;;;;;;17.50;8.70;;;;;;;;;;5037297;28;20037;-69
2021/01/22 01:01:06;;;;;;;17.08;8.30;;;;;;;;;;5037280;28;20052;-70
2021/01/22 01:03:32;;;;;;;15.65;8.30;;;;;;;;;;5036951;28;20021;-70
2021/01/22 01:05:58;;;;;;;14.82;8.07;;;;;;;;;;5037449;28;20175;-68
2021/01/22 01:08:24;;;;;;;17.45;8.85;;;;;;;;;;5037171;28;20048;-71
2021/01/22 01:10:50;;;;;;;15.50;7.88;;;;;;;;;;5036441;28;20052;-71
2021/01/22 01:13:16;;;;;;;15.50;8.25;;;;;;;;;;5037045;28;20140;-70
2021/01/22 01:15:42;;;;;;;16.52;8.18;;;;;;;;;;5036553;28;20050;-68
2021/01/22 01:18:08;;;;;;;16.42;8.60;;;;;;;;;;5036928;28;20048;-68
2021/01/22 01:20:34;;;;;;;22.10;12.00;;;;;;;;;;5036833;28;20021;-69
2021/01/22 01:23:00;;;;;;;32.47;14.43;;;;;;;;;;5036485;28;20097;-70
2021/01/22 01:25:27;;;;;;;27.23;13.30;;;;;;;;;;5036796;28;20057;-70
2021/01/22 01:27:53;;;;;;;21.52;11.00;;;;;;;;;;5036448;28;20428;-70
2021/01/22 01:30:19;;;;;;;20.02;10.40;;;;;;;;;;5036489;28;20100;-70
2021/01/22 01:32:45;;;;;;;17.23;8.70;;;;;;;;;;5036670;28;20022;-69
2021/01/22 01:35:11;;;;;;;17.00;8.02;;;;;;;;;;5036567;28;20068;-68
2021/01/22 01:37:38;;;;;;;16.08;9.07;;;;;;;;;;5036120;28;20413;-68
2021/01/22 01:40:05;;;;;;;15.43;8.38;;;;;;;;;;5036552;28;20025;-68
2021/01/22 01:42:31;;;;;;;17.15;7.55;;;;;;;;;;5037043;28;20053;-70
2021/01/22 01:44:57;;;;;;;14.43;7.20;;;;;;;;;;5035888;28;20072;-68
2021/01/22 01:47:23;;;;;;;10.50;6.88;;;;;;;;;;5036333;28;20029;-69
2021/01/22 01:49:49;;;;;;;11.98;6.82;;;;;;;;;;5035950;28;20029;-69
2021/01/22 01:52:15;;;;;;;10.85;6.10;;;;;;;;;;5035973;28;20121;-69
2021/01/22 01:54:42;;;;;;;12.05;5.93;;;;;;;;;;5036507;28;20025;-70
2021/01/22 01:57:08;;;;;;;10.35;5.55;;;;;;;;;;5036077;28;20041;-69
2021/01/22 01:59:35;;;;;;;12.05;5.60;;;;;;;;;;5035582;28;20104;-70
2021/01/22 02:02:02;;;;;;;11.38;5.90;;;;;;;;;;5036669;28;20025;-68
2021/01/22 02:04:28;;;;;;;10.98;5.97;;;;;;;;;;5035289;28;20026;-69
2021/01/22 02:06:54;;;;;;;11.27;5.70;;;;;;;;;;5035449;28;20029;-70
2021/01/22 02:09:20;;;;;;;11.10;5.20;;;;;;;;;;5035937;28;20025;-69
2021/01/22 02:11:46;;;;;;;10.00;5.38;;;;;;;;;;5035409;28;20036;-69
2021/01/22 02:14:12;;;;;;;9.93;5.20;;;;;;;;;;5035764;28;20128;-69
2021/01/22 02:16:38;;;;;;;12.13;5.70;;;;;;;;;;5035802;28;20094;-69
2021/01/22 02:19:05;;;;;;;12.70;6.10;;;;;;;;;;5035515;28;20457;-68
2021/01/22 02:21:33;;;;;;;11.52;5.60;;;;;;;;;;5035462;28;20396;-69
2021/01/22 02:24:07;;;;;;;9.00;5.25;;;;;;;;;;5035740;28;20022;-69
2021/01/22 02:26:52;;;;;;;8.77;5.38;;;;;;;;;;5035361;28;20469;-69
2021/01/22 02:29:19;;;;;;;11.40;5.72;;;;;;;;;;5035632;28;20025;-70
2021/01/22 02:31:47;;;;;;;12.18;5.40;;;;;;;;;;5035251;28;20417;-69
2021/01/22 02:34:15;;;;;;;10.30;5.00;;;;;;;;;;5035182;28;20032;-69
2021/01/22 02:36:42;;;;;;;12.88;5.65;;;;;;;;;;5035489;28;20030;-71
2021/01/22 02:39:11;;;;;;;10.05;5.70;;;;;;;;;;5035450;28;20033;-69
2021/01/22 02:41:39;;;;;;;12.50;5.75;;;;;;;;;;5035105;28;20457;-69
2021/01/22 02:44:05;;;;;;;14.52;5.55;;;;;;;;;;5035352;28;20017;-69
2021/01/22 02:46:32;;;;;;;12.23;5.10;;;;;;;;;;5035794;28;20083;-69
2021/01/22 02:49:01;;;;;;;10.05;5.00;;;;;;;;;;5035127;28;20034;-69
2021/01/22 02:51:28;;;;;;;16.75;5.70;;;;;;;;;;5035124;28;20079;-69
2021/01/22 02:53:54;;;;;;;14.10;6.40;;;;;;;;;;5034885;28;20042;-70
2021/01/22 02:56:38;;;;;;;12.55;6.43;;;;;;;;;;5035061;28;20029;-69
2021/01/22 02:59:20;;;;;;;11.43;5.28;;;;;;;;;;5034820;28;20025;-69
2021/01/22 03:01:55;;;;;;;10.93;5.35;;;;;;;;;;5034877;28;20025;-70
2021/01/22 03:04:24;;;;;;;12.68;5.90;;;;;;;;;;5034694;28;20026;-72
2021/01/22 03:06:50;;;;;;;9.07;5.53;;;;;;;;;;5034852;28;20022;-69
2021/01/22 03:09:20;;;;;;;13.68;5.90;;;;;;;;;;5034500;28;20029;-68
2021/01/22 03:11:48;;;;;;;14.98;6.55;;;;;;;;;;5035062;28;20032;-69
2021/01/22 03:14:15;;;;;;;12.63;6.65;;;;;;;;;;5033321;28;20072;-68
2021/01/22 03:16:41;;;;;;;12.30;6.47;;;;;;;;;;5033304;28;20576;-69
2021/01/22 03:19:07;;;;;;;14.20;6.50;;;;;;;;;;5033345;28;20030;-68
2021/01/22 03:21:33;;;;;;;14.57;6.78;;;;;;;;;;5034293;28;20029;-68
2021/01/22 03:23:59;;;;;;;12.85;6.85;;;;;;;;;;5034330;28;20077;-69
2021/01/22 03:26:25;;;;;;;15.63;7.03;;;;;;;;;;5034610;28;20037;-70
2021/01/22 03:28:52;;;;;;;12.70;6.95;;;;;;;;;;5034530;28;20104;-70
2021/01/22 03:31:18;;;;;;;12.75;7.22;;;;;;;;;;5034185;28;20033;-71
2021/01/22 03:33:47;;;;;;;12.70;7.10;;;;;;;;;;5034460;28;20063;-70
2021/01/22 03:36:13;;;;;;;10.60;6.88;;;;;;;;;;5033967;28;20163;-70
2021/01/22 03:38:39;;;;;;;14.50;6.93;;;;;;;;;;5034498;28;20032;-69
2021/01/22 03:41:05;;;;;;;13.20;7.45;;;;;;;;;;5034366;28;20123;-68
2021/01/22 03:43:31;;;;;;;14.82;7.25;;;;;;;;;;5031580;28;20029;-69
2021/01/22 03:45:57;;;;;;;13.48;7.13;;;;;;;;;;5033915;28;20508;-70
2021/01/22 03:48:23;;;;;;;11.60;6.95;;;;;;;;;;5033920;28;20083;-69
2021/01/22 03:50:50;;;;;;;14.20;7.03;;;;;;;;;;5033447;28;20022;-70
2021/01/22 03:53:16;;;;;;;14.35;7.13;;;;;;;;;;5033919;28;20416;-69
2021/01/22 03:55:42;;;;;;;11.73;7.03;;;;;;;;;;5033906;28;20063;-70
2021/01/22 03:58:10;;;;;;;14.23;7.22;;;;;;;;;;5033776;28;20032;-70
2021/01/22 04:00:36;;;;;;;13.65;7.20;;;;;;;;;;5033702;28;20473;-70
2021/01/22 04:03:02;;;;;;;12.10;6.78;;;;;;;;;;5033679;28;20029;-69
2021/01/22 04:05:28;;;;;;;12.02;6.70;;;;;;;;;;5033411;28;20106;-71
2021/01/22 04:07:54;;;;;;;12.50;6.55;;;;;;;;;;5033711;28;20032;-71
2021/01/22 04:10:20;;;;;;;13.57;6.72;;;;;;;;;;5033638;28;20189;-68
2021/01/22 04:12:46;;;;;;;11.98;6.57;;;;;;;;;;5033305;28;20159;-68
2021/01/22 04:15:13;;;;;;;13.43;7.05;;;;;;;;;;5033922;28;20056;-71
2021/01/22 04:17:39;;;;;;;10.32;6.32;;;;;;;;;;5033607;28;20025;-70
2021/01/22 04:20:06;;;;;;;11.77;6.47;;;;;;;;;;5033359;28;20021;-70
2021/01/22 04:22:32;;;;;;;12.27;6.70;;;;;;;;;;5033706;28;20029;-70
2021/01/22 04:24:58;;;;;;;13.65;6.88;;;;;;;;;;5033137;28;20022;-71
2021/01/22 04:27:24;;;;;;;14.30;7.43;;;;;;;;;;5033186;28;20469;-69
2021/01/22 04:29:50;;;;;;;12.80;6.57;;;;;;;;;;5033703;28;20079;-71
2021/01/22 04:32:16;;;;;;;13.25;6.63;;;;;;;;;;5033354;28;20144;-70
2021/01/22 04:34:42;;;;;;;13.57;6.53;;;;;;;;;;5033927;28;20476;-71
2021/01/22 04:37:08;;;;;;;13.23;6.90;;;;;;;;;;5033212;28;20444;-71
2021/01/22 04:39:36;;;;;;;11.40;7.05;;;;;;;;;;5033303;28;20071;-70
2021/01/22 04:42:03;;;;;;;15.10;7.63;;;;;;;;;;5033452;28;20021;-70
2021/01/22 04:44:29;;;;;;;14.00;7.30;;;;;;;;;;5033541;28;20488;-69
2021/01/22 04:46:56;;;;;;;15.45;7.40;;;;;;;;;;5033253;28;20046;-69
2021/01/22 04:49:22;;;;;;;14.00;7.32;;;;;;;;;;5033227;28;20018;-69
2021/01/22 04:51:52;;;;;;;13.80;7.20;;;;;;;;;;5033188;28;20032;-68
2021/01/22 04:54:20;;;;;;;12.93;6.90;;;;;;;;;;5033196;28;20017;-69
2021/01/22 04:56:48;;;;;;;12.43;7.25;;;;;;;;;;5033215;28;20026;-68
2021/01/22 04:59:27;;;;;;;12.85;7.20;;;;;;;;;;5033124;28;20076;-69
2021/01/22 05:01:55;;;;;;;12.25;7.15;;;;;;;;;;5033089;28;20099;-69
2021/01/22 05:04:21;;;;;;;14.77;7.28;;;;;;;;;;5033056;28;20485;-69
2021/01/22 05:06:50;;;;;;;15.68;6.65;;;;;;;;;;5033068;28;20029;-69
2021/01/22 05:09:17;;;;;;;14.23;6.50;;;;;;;;;;5033393;28;20029;-69
2021/01/22 05:11:43;;;;;;;14.73;6.53;;;;;;;;;;5033292;28;20025;-71
2021/01/22 05:14:09;;;;;;;14.65;7.50;;;;;;;;;;5032855;28;20036;-68
2021/01/22 05:16:36;;;;;;;15.75;7.28;;;;;;;;;;5033429;28;20354;-68
2021/01/22 05:19:20;;;;;;;14.88;7.60;;;;;;;;;;5033221;28;20026;-70
2021/01/22 05:21:47;;;;;;;13.52;7.15;;;;;;;;;;5032818;28;20424;-69
2021/01/22 05:24:22;;;;;;;13.55;7.13;;;;;;;;;;5033242;28;20480;-70
2021/01/22 05:26:57;;;;;;;14.18;7.35;;;;;;;;;;5033090;28;20113;-70
2021/01/22 05:29:23;;;;;;;13.07;6.95;;;;;;;;;;5032580;28;20028;-69
2021/01/22 05:31:49;;;;;;;14.50;7.63;;;;;;;;;;5033372;28;20114;-70
2021/01/22 05:34:15;;;;;;;16.73;7.88;;;;;;;;;;5033078;28;20030;-70
2021/01/22 05:36:42;;;;;;;18.15;7.80;;;;;;;;;;5032545;28;20030;-70
2021/01/22 05:39:18;;;;;;;16.90;8.32;;;;;;;;;;5033559;28;20026;-68
2021/01/22 05:41:54;;;;;;;16.90;8.13;;;;;;;;;;5036401;28;20079;-69
2021/01/22 05:44:20;;;;;;;16.25;7.82;;;;;;;;;;5036457;28;20057;-66
2021/01/22 05:46:59;;;;;;;15.80;7.78;;;;;;;;;;5036370;28;20033;-70
2021/01/22 05:49:26;;;;;;;16.38;8.30;;;;;;;;;;5045351;28;20040;-66
2021/01/22 05:51:52;;;;;;;17.60;8.50;;;;;;;;;;5045602;28;20024;-68
2021/01/22 05:54:38;;;;;;;15.80;7.13;;;;;;;;;;5037189;28;20022;-69
2021/01/22 05:57:04;;;;;;;16.55;8.10;;;;;;;;;;5035231;28;20496;-68
2021/01/22 05:59:31;;;;;;;15.93;7.80;;;;;;;;;;5035173;28;20029;-70
2021/01/22 06:01:57;;;;;;;17.15;7.95;;;;;;;;;;5035590;28;20014;-69
2021/01/22 06:04:23;;;;;;;14.82;7.43;;;;;;;;;;5035820;28;20048;-70
2021/01/22 06:06:53;;;;;;;15.80;7.38;;;;;;;;;;5035717;28;20053;-70
2021/01/22 06:09:33;;;;;;;19.23;7.90;;;;;;;;;;5035981;28;20021;-70
2021/01/22 06:12:02;;;;;;;13.05;7.07;;;;;;;;;;5036534;28;20021;-68
2021/01/22 06:14:33;;;;;;;17.23;8.27;;;;;;;;;;5036243;28;20049;-67
2021/01/22 06:17:01;;;;;;;16.38;8.77;;;;;;;;;;5035419;28;20024;-70
2021/01/22 06:19:28;;;;;;;16.88;8.68;;;;;;;;;;5034882;28;20033;-69
2021/01/22 06:22:01;;;;;;;16.23;8.77;;;;;;;;;;5035749;28;20033;-70
2021/01/22 06:24:27;;;;;;;18.50;8.82;;;;;;;;;;5035818;28;20028;-69
2021/01/22 06:26:55;;;;;;;16.45;9.15;;;;;;;;;;5035479;28;20075;-68
2021/01/22 06:29:22;;;;;;;15.85;8.38;;;;;;;;;;5034931;28;20439;-69
2021/01/22 06:31:49;;;;;;;17.08;8.07;;;;;;;;;;5035276;28;20017;-68
2021/01/22 06:34:16;;;;;;;16.85;8.82;;;;;;;;;;5035662;28;20083;-70
2021/01/22 06:36:45;;;;;;;16.60;8.52;;;;;;;;;;5037912;28;20465;-66
2021/01/22 06:39:15;;;;;;;14.50;7.97;;;;;;;;;;5035038;28;20029;-68
2021/01/22 06:41:41;;;;;;;18.00;8.77;;;;;;;;;;5034815;28;20469;-68
2021/01/22 06:44:07;;;;;;;13.35;7.40;;;;;;;;;;5034916;28;20110;-70
2021/01/22 06:46:34;;;;;;;13.07;7.03;;;;;;;;;;5034748;28;20021;-71
2021/01/22 06:49:04;;;;;;;13.30;6.22;;;;;;;;;;5032196;28;20049;-69
2021/01/22 06:51:33;;;;;;;12.23;6.72;;;;;;;;;;5031371;28;20022;-71
2021/01/22 06:54:08;;;;;;;13.05;6.72;;;;;;;;;;5034025;28;20014;-68
2021/01/22 06:56:50;;;;;;;13.02;6.05;;;;;;;;;;5032837;28;20548;-68
2021/01/22 06:59:23;;;;;;;15.18;7.15;;;;;;;;;;5032875;28;20033;-68
2021/01/22 07:01:49;;;;;;;15.85;6.72;;;;;;;;;;5035655;28;20017;-68
2021/01/22 07:04:34;;;;;;;12.88;6.78;;;;;;;;;;5044488;28;20043;-69
2021/01/22 07:07:04;;;;;;;15.20;7.75;;;;;;;;;;5036132;28;20024;-69
2021/01/22 07:09:42;;;;;;;14.93;7.00;;;;;;;;;;5052744;28;20024;-68
2021/01/22 07:12:29;;;;;;;17.52;8.13;;;;;;;;;;5054661;28;20017;-70
2021/01/22 07:14:55;;;;;;;15.43;7.47;;;;;;;;;;5054778;28;20374;-69
2021/01/22 07:17:22;;;;;;;13.95;7.30;;;;;;;;;;5053530;28;20036;-67
2021/01/22 07:19:52;;;;;;;18.55;8.18;;;;;;;;;;5043288;28;20028;-68
2021/01/22 07:22:18;;;;;;;15.88;8.00;;;;;;;;;;5042233;28;20028;-70
2021/01/22 07:24:46;;;;;;;13.45;7.63;;;;;;;;;;5042897;28;20014;-68
2021/01/22 07:27:13;;;;;;;14.52;7.20;;;;;;;;;;5046847;28;20411;-67
2021/01/22 07:29:39;;;;;;;12.40;7.50;;;;;;;;;;5054174;28;20025;-67
2021/01/22 07:32:06;;;;;;;12.65;7.43;;;;;;;;;;5053670;28;20025;-66
2021/01/22 07:34:41;;;;;;;14.15;7.40;;;;;;;;;;5054176;28;20503;-65
2021/01/22 07:37:08;;;;;;;15.90;8.10;;;;;;;;;;5053309;28;20060;-67
2021/01/22 07:39:34;;;;;;;16.45;8.25;;;;;;;;;;5050268;28;20095;-66
2021/01/22 07:42:08;;;;;;;19.27;8.40;;;;;;;;;;5038003;28;20064;-65
2021/01/22 07:44:34;;;;;;;15.13;7.90;;;;;;;;;;5047571;28;20063;-65
2021/01/22 07:47:00;;;;;;;15.50;8.25;;;;;;;;;;5035361;28;20056;-64
2021/01/22 07:49:26;;;;;;;19.50;8.10;;;;;;;;;;5037708;28;20030;-67
2021/01/22 07:51:53;;;;;;;20.00;8.68;;;;;;;;;;5043574;28;20021;-66
2021/01/22 07:54:19;;;;;;;16.38;7.82;;;;;;;;;;5039602;28;20422;-66
2021/01/22 07:56:47;;;;;;;19.42;8.60;;;;;;;;;;5033673;28;20030;-66
2021/01/22 07:59:14;;;;;;;19.23;8.25;;;;;;;;;;5033264;28;20028;-66
2021/01/22 08:01:40;;;;;;;14.55;8.63;;;;;;;;;;5032447;28;20104;-65
2021/01/22 08:04:06;;;;;;;15.35;8.55;;;;;;;;;;5036124;28;20138;-67
2021/01/22 08:06:44;;;;;;;21.52;10.38;;;;;;;;;;5034063;28;20030;-66
2021/01/22 08:09:12;;;;;;;22.83;11.05;;;;;;;;;;5031592;28;20030;-66
2021/01/22 08:11:38;;;;;;;19.30;9.70;;;;;;;;;;5034419;28;20504;-68
2021/01/22 08:14:04;;;;;;;17.92;9.10;;;;;;;;;;5035992;28;20353;-69
2021/01/22 08:16:32;;;;;;;16.55;8.55;;;;;;;;;;5030648;28;20087;-68
2021/01/22 08:18:59;;;;;;;19.20;8.85;;;;;;;;;;5032113;28;20041;-72
2021/01/22 08:21:29;;;;;;;17.48;9.15;;;;;;;;;;5031148;28;20075;-69
2021/01/22 08:23:55;;;;;;;16.35;8.32;;;;;;;;;;5032948;28;20061;-68
2021/01/22 08:26:22;;;;;;;16.38;7.72;;;;;;;;;;5033261;28;20036;-69
2021/01/22 08:28:51;;;;;;;14.05;7.60;;;;;;;;;;5032842;28;20076;-68
2021/01/22 08:31:17;;;;;;;14.35;7.65;;;;;;;;;;5031722;28;20403;-68
2021/01/22 08:33:44;;;;;;;14.57;7.78;;;;;;;;;;5031348;28;20022;-69
2021/01/22 08:36:10;;;;;;;16.27;7.63;;;;;;;;;;5032005;28;20406;-69
2021/01/22 08:38:37;;;;;;;17.40;8.30;;;;;;;;;;5032412;28;20036;-67
2021/01/22 08:41:03;;;;;;;17.67;8.18;;;;;;;;;;5032046;28;20021;-69
2021/01/22 08:43:29;;;;;;;17.95;7.95;;;;;;;;;;5032984;28;20026;-66
2021/01/22 08:46:12;;;;;;;18.15;8.57;;;;;;;;;;5033153;28;20060;-70
2021/01/22 08:48:41;;;;;;;;;;;;;;;;;;5050557;28;20024;-70
2021/01/22 08:51:07;;;;;;;16.17;8.00;;;;;;;;;;5039098;28;19955;-69
2021/01/22 08:53:34;;;;;;;17.55;8.65;;;;;;;;;;5042946;28;20537;-68
2021/01/22 08:56:10;;;;;;;17.73;7.85;;;;;;;;;;5043219;28;20025;-67
2021/01/22 08:58:36;;;;;;;18.73;9.02;;;;;;;;;;5041251;28;20029;-69
2021/01/22 09:01:02;;;;;;;17.45;8.20;;;;;;;;;;5041586;28;20053;-69
2021/01/22 09:03:31;;;;;;;19.73;8.63;;;;;;;;;;5043538;28;20044;-67
2021/01/22 09:05:59;;;;;;;16.95;8.25;;;;;;;;;;5041960;28;20465;-69
2021/01/22 09:08:26;;;;;;;15.00;7.60;;;;;;;;;;5041467;28;20025;-68
2021/01/22 09:10:52;;;;;;;16.05;7.43;;;;;;;;;;5043012;28;20025;-68
2021/01/22 09:13:28;;;;;;;16.35;8.18;;;;;;;;;;5041661;28;20064;-70
2021/01/22 09:16:04;;;;;;;15.20;8.27;;;;;;;;;;5044862;28;20037;-68
2021/01/22 09:18:30;;;;;;;19.63;8.07;;;;;;;;;;5045478;28;20072;-68
2021/01/22 09:21:01;;;;;;;13.65;7.15;;;;;;;;;;5047332;28;20025;-67
2021/01/22 09:23:27;;;;;;;13.52;8.00;;;;;;;;;;5046893;28;20021;-68
2021/01/22 09:25:53;;;;;;;15.90;7.32;;;;;;;;;;5045290;28;20112;-69
2021/01/22 09:28:20;;;;;;;14.00;7.43;;;;;;;;;;5046743;28;20017;-70
2021/01/22 09:30:46;;;;;;;12.90;7.43;;;;;;;;;;5041271;28;20545;-68
2021/01/22 09:33:13;;;;;;;14.02;7.38;;;;;;;;;;5042713;28;20029;-70
2021/01/22 09:35:39;;;;;;;14.18;7.32;;;;;;;;;;5034842;28;20021;-70
2021/01/22 09:38:05;;;;;;;13.68;6.80;;;;;;;;;;5033694;28;20025;-67
2021/01/22 09:40:31;;;;;;;15.38;7.18;;;;;;;;;;5035171;28;20021;-68
2021/01/22 09:42:57;;;;;;;14.90;6.70;;;;;;;;;;5034743;28;20465;-68
2021/01/22 09:45:23;;;;;;;13.18;6.05;;;;;;;;;;5033256;28;20122;-70
2021/01/22 09:47:49;;;;;;;14.00;6.75;;;;;;;;;;5034929;28;20025;-68
2021/01/22 09:50:17;;;;;;;19.05;7.13;;;;;;;;;;5033444;28;20377;-69
2021/01/22 09:52:43;;;;;;;14.55;6.40;;;;;;;;;;5034801;28;20021;-69
2021/01/22 09:55:11;;;;;;;12.68;6.00;;;;;;;;;;5029895;28;20079;-68
2021/01/22 09:57:37;;;;;;;14.25;6.68;;;;;;;;;;5031556;28;20026;-67
2021/01/22 10:00:04;;;;;;;12.13;6.13;;;;;;;;;;5034896;28;20013;-69
2021/01/22 10:02:30;;;;;;;12.00;5.72;;;;;;;;;;5033639;28;20564;-69
2021/01/22 10:04:56;;;;;;;16.05;5.72;;;;;;;;;;5031694;28;20091;-70
2021/01/22 10:07:22;;;;;;;10.85;5.78;;;;;;;;;;5034599;28;20021;-70
2021/01/22 10:09:48;;;;;;;11.25;6.72;;;;;;;;;;5033565;28;20465;-68
2021/01/22 10:12:15;;;;;;;15.52;6.90;;;;;;;;;;5037896;28;20056;-67
2021/01/22 10:14:41;;;;;;;15.00;6.97;;;;;;;;;;5033546;28;20041;-68
2021/01/22 10:17:07;;;;;;;14.02;7.00;;;;;;;;;;5043417;28;20037;-68
2021/01/22 10:19:35;;;;;;;13.32;6.80;;;;;;;;;;5050396;28;20048;-68
2021/01/22 10:22:01;;;;;;;13.43;6.95;;;;;;;;;;5054395;28;20040;-70
2021/01/22 10:24:27;;;;;;;12.55;5.97;;;;;;;;;;5054482;28;20108;-69
2021/01/22 10:26:53;;;;;;;14.90;5.95;;;;;;;;;;5052560;28;20362;-66
2021/01/22 10:29:19;;;;;;;16.13;6.10;;;;;;;;;;5054673;28;20020;-67
2021/01/22 10:31:45;;;;;;;12.20;6.20;;;;;;;;;;5049919;28;20021;-68
2021/01/22 10:34:11;;;;;;;13.13;6.70;;;;;;;;;;5031261;28;20013;-67
2021/01/22 10:36:37;;;;;;;15.57;7.05;;;;;;;;;;5034618;28;20037;-66
2021/01/22 10:39:04;;;;;;;14.57;6.50;;;;;;;;;;5032724;28;20472;-67
2021/01/22 10:41:30;;;;;;;13.52;6.32;;;;;;;;;;5030588;28;20100;-67
2021/01/22 10:43:57;;;;;;;13.18;6.63;;;;;;;;;;5034017;28;20381;-66
2021/01/22 10:46:23;;;;;;;13.70;6.20;;;;;;;;;;5034364;28;20022;-66
2021/01/22 10:48:49;;;;;;;13.30;6.10;;;;;;;;;;5034895;28;20028;-66
2021/01/22 10:51:15;;;;;;;15.23;6.57;;;;;;;;;;5034606;28;20021;-68
2021/01/22 10:53:41;;;;;;;13.77;6.38;;;;;;;;;;5034439;28;20033;-65
2021/01/22 10:56:07;;;;;;;16.05;7.13;;;;;;;;;;5033977;28;20040;-66
2021/01/22 10:58:34;;;;;;;13.27;6.50;;;;;;;;;;5034891;28;20091;-66
2021/01/22 11:01:00;;;;;;;13.07;6.50;;;;;;;;;;5034099;28;20059;-67
2021/01/22 11:03:30;;;;;;;12.80;6.50;;;;;;;;;;5034486;28;20079;-67
2021/01/22 11:05:56;;;;;;;15.43;6.40;;;;;;;;;;5034262;28;20029;-67
2021/01/22 11:08:23;;;;;;;14.48;6.60;;;;;;;;;;5033990;28;20025;-67
2021/01/22 11:10:50;;;;;;;15.05;6.63;;;;;;;;;;5034542;28;20033;-68
2021/01/22 11:13:16;;;;;;;14.90;6.45;;;;;;;;;;5034270;28;20041;-68
2021/01/22 11:15:44;;;;;;;14.93;6.95;;;;;;;;;;5031937;28;20050;-68
2021/01/22 11:18:10;;;;;;;13.25;6.85;;;;;;;;;;5032690;28;20473;-67
2021/01/22 11:20:37;;;;;;;17.70;7.13;;;;;;;;;;5032829;28;20076;-67
2021/01/22 11:23:03;;;;;;;16.48;7.80;;;;;;;;;;5032249;28;20114;-70
2021/01/22 11:25:29;;;;;;;12.55;6.35;;;;;;;;;;5033204;28;20025;-69
2021/01/22 11:27:55;;;;;;;19.77;9.65;;;;;;;;;;5031581;28;20092;-69
2021/01/22 11:30:22;;;;;;;19.00;6.57;;;;;;;;;;5032007;28;20034;-67
2021/01/22 11:32:48;;;;;;;18.05;6.78;;;;;;;;;;5032717;28;20052;-68
2021/01/22 11:35:14;;;;;;;16.42;6.55;;;;;;;;;;5032617;28;20473;-69
2021/01/22 11:37:41;;;;;;;16.08;6.28;;;;;;;;;;5031395;28;20567;-68
2021/01/22 11:40:08;;;;;;;14.73;6.78;;;;;;;;;;5032880;28;20087;-67
2021/01/22 11:42:34;;;;;;;14.30;5.68;;;;;;;;;;5030001;28;20083;-68
2021/01/22 11:45:00;;;;;;;17.65;6.90;;;;;;;;;;5032237;28;20048;-66
2021/01/22 11:47:27;;;;;;;17.65;6.60;;;;;;;;;;5033948;28;20033;-66
2021/01/22 11:49:53;;;;;;;19.05;6.13;;;;;;;;;;5033497;28;20029;-72
2021/01/22 11:52:19;;;;;;;14.63;6.18;;;;;;;;;;5033356;28;20029;-71
2021/01/22 11:54:45;;;;;;;12.48;6.10;;;;;;;;;;5032344;28;20022;-69
2021/01/22 11:57:11;;;;;;;17.08;6.40;;;;;;;;;;5031818;28;20527;-67
2021/01/22 11:59:37;;;;;;;18.75;7.25;;;;;;;;;;5030221;28;20029;-68
2021/01/22 12:02:03;;;;;;;10.35;5.57;;;;;;;;;;5031955;28;20022;-68
2021/01/22 12:04:29;;;;;;;17.10;6.22;;;;;;;;;;5031973;28;20093;-69
2021/01/22 12:06:56;;;;;;;16.58;5.78;;;;;;;;;;5032366;28;20074;-68
2021/01/22 12:09:22;;;;;;;19.70;8.27;;;;;;;;;;5032402;28;20028;-69
2021/01/22 12:11:48;;;;;;;15.07;5.82;;;;;;;;;;5028955;28;20025;-70
2021/01/22 12:14:14;;;;;;;13.02;5.63;;;;;;;;;;5030833;28;20041;-72
2021/01/22 12:16:40;;;;;;;13.35;5.95;;;;;;;;;;5033066;28;20682;-69
2021/01/22 12:19:06;;;;;;;13.32;5.72;;;;;;;;;;5033498;28;20029;-69
2021/01/22 12:21:32;;;;;;;10.77;5.90;;;;;;;;;;5033669;28;20026;-68
2021/01/22 12:23:59;;;;;;;16.60;6.60;;;;;;;;;;5041398;28;20043;-69
2021/01/22 12:26:25;;;;;;;14.80;5.82;;;;;;;;;;5035917;28;20034;-68
2021/01/22 12:28:51;;;;;;;14.68;5.10;;;;;;;;;;5037831;28;20025;-68
2021/01/22 12:31:17;;;;;;;15.90;5.70;;;;;;;;;;5033307;28;20060;-70
2021/01/22 12:33:43;;;;;;;11.60;5.10;;;;;;;;;;5033410;28;20044;-69
2021/01/22 12:36:10;;;;;;;13.15;5.60;;;;;;;;;;5033364;28;20041;-70
2021/01/22 12:38:36;;;;;;;19.92;5.90;;;;;;;;;;5032793;28;20030;-69
2021/01/22 12:41:03;;;;;;;14.15;5.63;;;;;;;;;;5033155;28;20469;-70
2021/01/22 12:43:29;;;;;;;16.13;6.20;;;;;;;;;;5033087;28;20022;-69
2021/01/22 12:45:55;;;;;;;15.98;5.72;;;;;;;;;;5032908;28;20029;-69
2021/01/22 12:48:21;;;;;;;12.40;5.43;;;;;;;;;;5034407;28;20022;-68
2021/01/22 12:50:48;;;;;;;17.67;6.15;;;;;;;;;;5032977;28;20500;-68
2021/01/22 12:53:14;;;;;;;9.75;5.50;;;;;;;;;;5036586;28;20026;-70
2021/01/22 12:55:45;;;;;;;14.80;5.40;;;;;;;;;;5045722;28;20116;-69
2021/01/22 12:58:11;;;;;;;12.73;5.82;;;;;;;;;;5035652;28;20029;-66
2021/01/22 13:00:37;;;;;;;8.93;4.63;;;;;;;;;;5034259;28;20013;-69
2021/01/22 13:03:03;;;;;;;11.80;5.72;;;;;;;;;;5033745;28;20034;-70
2021/01/22 13:05:29;;;;;;;12.07;6.03;;;;;;;;;;5034761;28;20024;-68
2021/01/22 13:07:56;;;;;;;17.00;5.35;;;;;;;;;;5035267;28;20087;-68
2021/01/22 13:10:22;;;;;;;11.77;5.45;;;;;;;;;;5034534;28;20026;-67
2021/01/22 13:12:51;;;;;;;11.77;5.47;;;;;;;;;;5034081;28;20053;-70
2021/01/22 13:15:18;;;;;;;12.35;5.43;;;;;;;;;;5033891;28;20045;-67
2021/01/22 13:17:44;;;;;;;14.20;5.70;;;;;;;;;;5035601;28;20101;-67
2021/01/22 13:20:10;;;;;;;14.07;6.38;;;;;;;;;;5034417;28;20026;-69
2021/01/22 13:22:37;;;;;;;8.77;4.60;;;;;;;;;;5034226;28;20104;-67
2021/01/22 13:25:04;;;;;;;14.73;6.45;;;;;;;;;;5036104;28;20499;-68
2021/01/22 13:27:30;;;;;;;13.52;5.57;;;;;;;;;;5034804;28;20061;-67
2021/01/22 13:29:56;;;;;;;13.57;5.47;;;;;;;;;;5035280;28;20025;-65
2021/01/22 13:32:23;;;;;;;14.30;4.88;;;;;;;;;;5034691;28;20487;-68
2021/01/22 13:34:49;;;;;;;16.98;5.68;;;;;;;;;;5034568;28;20457;-72
2021/01/22 13:37:15;;;;;;;9.82;5.07;;;;;;;;;;5034443;28;20032;-70
2021/01/22 13:39:41;;;;;;;18.77;6.53;;;;;;;;;;5035341;28;20472;-71
2021/01/22 13:42:08;;;;;;;16.75;6.93;;;;;;;;;;5034755;28;20029;-71
2021/01/22 13:44:34;;;;;;;23.05;7.70;;;;;;;;;;5033177;28;20018;-71
2021/01/22 13:47:00;;;;;;;16.58;6.93;;;;;;;;;;5034593;28;20101;-70
2021/01/22 13:49:26;;;;;;;14.73;8.00;;;;;;;;;;5033754;28;20097;-69
2021/01/22 13:51:52;;;;;;;15.52;7.18;;;;;;;;;;5034857;28;20032;-71
2021/01/22 13:54:18;;;;;;;16.00;7.18;;;;;;;;;;5035178;28;20021;-71
2021/01/22 13:56:44;;;;;;;17.02;7.53;;;;;;;;;;5035303;28;20029;-70
2021/01/22 13:59:10;;;;;;;17.30;6.75;;;;;;;;;;5035876;28;20049;-69
2021/01/22 14:01:37;;;;;;;16.27;6.90;;;;;;;;;;5034916;28;20040;-70
2021/01/22 14:04:03;;;;;;;15.20;7.03;;;;;;;;;;5035484;28;20028;-70
2021/01/22 14:06:29;;;;;;;18.73;7.40;;;;;;;;;;5035548;28;20064;-69
2021/01/22 14:08:55;;;;;;;20.75;7.97;;;;;;;;;;5036142;28;20072;-71
2021/01/22 14:11:21;;;;;;;17.38;8.38;;;;;;;;;;5035464;28;20131;-71
2021/01/22 14:13:48;;;;;;;20.73;7.97;;;;;;;;;;5034748;28;20029;-68
2021/01/22 14:16:14;;;;;;;27.40;8.40;;;;;;;;;;5035310;28;20092;-68
2021/01/22 14:18:40;;;;;;;19.13;8.23;;;;;;;;;;5044270;28;20032;-70
2021/01/22 14:21:06;;;;;;;21.40;9.40;;;;;;;;;;5045735;28;20656;-69
2021/01/22 14:23:32;;;;;;;22.48;9.18;;;;;;;;;;5040883;28;20117;-70
2021/01/22 14:25:58;;;;;;;16.55;7.43;;;;;;;;;;5043699;28;20027;-69
2021/01/22 14:28:24;;;;;;;19.60;8.65;;;;;;;;;;5046555;28;20025;-68